Terminal Aerodrome Forecast
Issued by NWS

Home | Current Version | Previous Version | Graphics & Text | Print | Product List | Glossary Off
Versions: 1 2 3 4 5 6 7 8 9 10 11 12 13 14 15 16 17 18 19 20 21 22 23 24

655
FTUS43 KABR 260701 AAA
TAFMBG
TAF AMD
KMBG 260701Z 2607/2706 01015G20KT P6SM BKN023 OVC040
     FM261500 35015G24KT P6SM OVC015
     FM262100 35009KT P6SM BKN050
     FM270200 03007KT P6SM SCT250=

USA.gov is the U.S. government's official web portal to all federal, state and local government web resources and services.